createdAt,value
2023-09-01T00:00:32.304Z,14.48
2023-09-01T00:02:57.727Z,14.44
2023-09-01T00:05:09.528Z,14.47
2023-09-01T00:07:17.887Z,14.48
2023-09-01T00:09:26.276Z,14.40
2023-09-01T00:11:34.348Z,14.38
2023-09-01T00:13:42.892Z,14.31
2023-09-01T00:15:51.082Z,14.23
2023-09-01T00:17:59.370Z,14.19
2023-09-01T00:20:11.839Z,14.17
2023-09-01T00:22:20.146Z,14.18
2023-09-01T00:24:28.236Z,14.18
2023-09-01T00:26:36.325Z,14.14
2023-09-01T00:28:45.786Z,14.25
2023-09-01T00:30:56.776Z,14.27
2023-09-01T00:33:05.538Z,14.32
2023-09-01T00:35:17.983Z,14.27
2023-09-01T00:37:26.405Z,14.23
2023-09-01T00:39:35.233Z,14.22
2023-09-01T00:41:43.273Z,14.24
2023-09-01T00:43:51.546Z,14.34
2023-09-01T00:45:59.968Z,14.33
2023-09-01T00:48:11.680Z,14.31
2023-09-01T00:50:22.834Z,14.33
2023-09-01T00:52:31.489Z,14.34
2023-09-01T00:54:39.622Z,14.43
2023-09-01T00:56:48.819Z,14.40
2023-09-01T00:58:57.126Z,14.46
2023-09-01T01:01:06.226Z,14.51
2023-09-01T01:03:16.327Z,14.57
2023-09-01T01:05:35.325Z,14.68
2023-09-01T01:07:49.838Z,14.78
2023-09-01T01:10:07.822Z,14.85
2023-09-01T01:12:25.005Z,14.91
2023-09-01T01:14:40.569Z,14.97
2023-09-01T01:16:48.964Z,15.02
2023-09-01T01:18:58.611Z,15.10
2023-09-01T01:21:15.547Z,15.14
2023-09-01T01:23:27.276Z,15.23
2023-09-01T01:25:35.516Z,15.21
2023-09-01T01:27:47.189Z,15.19
2023-09-01T01:29:55.297Z,15.24
2023-09-01T01:32:04.330Z,15.26
2023-09-01T01:34:21.806Z,15.27
2023-09-01T01:36:37.156Z,15.37
2023-09-01T01:38:52.421Z,15.39
2023-09-01T01:41:11.125Z,15.45
2023-09-01T01:43:23.487Z,15.39
2023-09-01T01:45:33.215Z,15.30
2023-09-01T01:47:41.956Z,15.25
2023-09-01T01:49:50.754Z,15.20
2023-09-01T01:51:58.928Z,15.14
2023-09-01T01:54:11.136Z,15.19
2023-09-01T01:56:19.962Z,15.27
2023-09-01T01:58:28.502Z,15.32
2023-09-01T02:00:36.978Z,15.17
2023-09-01T02:02:47.645Z,15.31
2023-09-01T02:04:56.158Z,15.30
2023-09-01T02:07:06.837Z,15.38
2023-09-01T02:09:19.487Z,15.26
2023-09-01T02:11:28.560Z,15.23
2023-09-01T02:13:36.657Z,15.23
2023-09-01T02:15:45.064Z,15.32
2023-09-01T02:17:53.277Z,15.39
2023-09-01T02:20:01.686Z,15.27
2023-09-01T02:22:09.985Z,15.31
2023-09-01T02:24:18.466Z,15.35
2023-09-01T02:26:28.072Z,15.45
2023-09-01T02:28:36.292Z,15.49
2023-09-01T02:30:44.756Z,15.40
2023-09-01T02:32:53.170Z,15.45
2023-09-01T02:35:02.113Z,15.46
2023-09-01T02:37:10.339Z,15.48
2023-09-01T02:39:22.468Z,15.50
2023-09-01T02:41:28.393Z,15.55
2023-09-01T02:43:36.479Z,15.54
2023-09-01T02:45:44.749Z,15.50
2023-09-01T02:47:53.028Z,15.63
2023-09-01T02:49:58.668Z,15.58
2023-09-01T02:52:07.769Z,15.57
2023-09-01T02:54:15.988Z,15.51
2023-09-01T02:56:26.737Z,15.66
2023-09-01T02:58:37.459Z,15.58
2023-09-01T03:00:48.048Z,15.56
2023-09-01T03:02:56.438Z,15.73
2023-09-01T03:05:06.275Z,15.69
2023-09-01T03:07:14.465Z,15.71
2023-09-01T03:09:22.727Z,15.63
2023-09-01T03:11:34.706Z,15.70
2023-09-01T03:13:44.769Z,15.64
2023-09-01T03:15:53.100Z,15.61
2023-09-01T03:18:02.240Z,15.57
2023-09-01T03:20:13.830Z,15.69
2023-09-01T03:22:22.136Z,15.80
2023-09-01T03:24:30.921Z,15.84
2023-09-01T03:26:42.091Z,15.79
2023-09-01T03:28:52.756Z,15.87
2023-09-01T03:31:01.155Z,15.75
2023-09-01T03:33:12.236Z,15.78
2023-09-01T03:35:20.730Z,15.78
2023-09-01T03:37:31.730Z,15.77
2023-09-01T03:39:40.390Z,15.95
2023-09-01T03:41:51.687Z,15.84
2023-09-01T03:44:00.226Z,15.84
2023-09-01T03:46:10.006Z,15.87
2023-09-01T03:48:19.521Z,15.87
2023-09-01T03:50:28.459Z,15.85
2023-09-01T03:52:37.365Z,15.91
2023-09-01T03:54:46.306Z,15.77
2023-09-01T03:56:57.437Z,15.86
2023-09-01T03:59:03.090Z,15.81
2023-09-01T04:01:13.933Z,15.86
2023-09-01T04:03:23.983Z,15.90
2023-09-01T04:05:32.375Z,15.81
2023-09-01T04:07:40.559Z,15.78
2023-09-01T04:09:48.915Z,15.80
2023-09-01T04:11:59.882Z,15.79
2023-09-01T04:14:10.502Z,15.90
2023-09-01T04:16:20.340Z,15.76
2023-09-01T04:18:28.705Z,15.72
2023-09-01T04:20:36.934Z,15.62
2023-09-01T04:22:45.371Z,15.61
2023-09-01T04:24:53.796Z,15.50
2023-09-01T04:27:06.897Z,15.41
2023-09-01T04:29:15.961Z,15.31
2023-09-01T04:31:29.535Z,15.45
2023-09-01T04:33:40.046Z,15.37
2023-09-01T04:35:48.564Z,15.37
2023-09-01T04:37:56.730Z,15.40
2023-09-01T04:40:07.530Z,15.39
2023-09-01T04:42:19.761Z,15.29
2023-09-01T04:44:30.934Z,15.25
2023-09-01T04:46:45.604Z,15.36
2023-09-01T04:48:54.432Z,15.36
2023-09-01T04:51:04.338Z,15.42
2023-09-01T04:53:15.842Z,15.56
2023-09-01T04:55:26.518Z,15.55
2023-09-01T04:57:37.467Z,15.55
2023-09-01T04:59:46.686Z,15.59
2023-09-01T05:01:55.917Z,15.65
2023-09-01T05:04:08.211Z,15.62
2023-09-01T05:06:25.102Z,15.69
2023-09-01T05:08:35.661Z,15.71
2023-09-01T05:10:45.079Z,15.78
2023-09-01T05:12:59.318Z,15.76
2023-09-01T05:15:09.311Z,15.93
2023-09-01T05:17:17.315Z,15.85
2023-09-01T05:19:58.640Z,15.87
2023-09-01T05:22:36.026Z,15.84
2023-09-01T05:24:45.507Z,15.89
2023-09-01T05:26:57.622Z,15.87
2023-09-01T05:29:10.519Z,15.81
2023-09-01T05:31:19.280Z,15.77
2023-09-01T05:33:30.510Z,15.78
2023-09-01T05:35:39.633Z,15.73
2023-09-01T05:37:48.375Z,15.68
2023-09-01T05:39:58.415Z,15.71
2023-09-01T05:42:11.646Z,15.74
2023-09-01T05:44:22.640Z,15.72
2023-09-01T05:46:33.600Z,15.81
2023-09-01T05:48:43.330Z,15.78
2023-09-01T05:50:55.642Z,15.74
2023-09-01T05:53:05.432Z,15.69
2023-09-01T05:55:15.243Z,15.57
2023-09-01T05:57:23.637Z,15.49
2023-09-01T05:59:34.658Z,15.51
2023-09-01T06:01:42.709Z,15.42
2023-09-01T06:03:50.967Z,15.45
2023-09-01T06:05:59.320Z,15.42
2023-09-01T06:08:07.888Z,15.37
2023-09-01T06:10:20.768Z,15.44
2023-09-01T06:12:29.891Z,15.45
2023-09-01T06:14:40.843Z,15.38
2023-09-01T06:16:55.116Z,15.43
2023-09-01T06:19:04.465Z,15.49
2023-09-01T06:21:11.855Z,15.52
2023-09-01T06:23:19.903Z,15.52
2023-09-01T06:25:28.326Z,15.50
2023-09-01T06:27:38.690Z,15.45
2023-09-01T06:29:49.644Z,15.43
2023-09-01T06:31:57.874Z,15.34
2023-09-01T06:34:05.834Z,15.31
2023-09-01T06:36:14.722Z,15.40
2023-09-01T06:38:23.448Z,15.25
2023-09-01T06:40:32.957Z,15.25
2023-09-01T06:42:42.114Z,15.19
2023-09-01T06:44:54.777Z,15.24
2023-09-01T06:47:05.181Z,15.19
2023-09-01T06:49:14.236Z,15.27
2023-09-01T06:51:22.163Z,15.21
2023-09-01T06:53:30.370Z,15.27
2023-09-01T06:55:41.807Z,15.29
2023-09-01T06:57:51.776Z,15.38
2023-09-01T07:00:03.779Z,15.51
2023-09-01T07:02:11.808Z,15.38
2023-09-01T07:04:21.024Z,15.35
2023-09-01T07:06:29.203Z,15.30
2023-09-01T07:08:34.663Z,15.16
2023-09-01T07:10:43.993Z,15.23
2023-09-01T07:12:54.422Z,15.29
2023-09-01T07:15:04.080Z,15.29
2023-09-01T07:17:15.228Z,15.38
2023-09-01T07:19:23.397Z,15.30
2023-09-01T07:21:31.346Z,15.27
2023-09-01T07:23:43.182Z,15.34
2023-09-01T07:26:02.420Z,15.38
2023-09-01T07:28:12.550Z,15.21
2023-09-01T07:30:25.208Z,15.05
2023-09-01T07:32:36.221Z,15.02
2023-09-01T07:34:44.208Z,15.02
2023-09-01T07:36:52.494Z,15.04
2023-09-01T07:39:03.437Z,15.02
2023-09-01T07:41:13.870Z,15.06
2023-09-01T07:43:21.855Z,15.11
2023-09-01T07:45:37.817Z,15.21
2023-09-01T07:47:51.414Z,15.42
2023-09-01T07:50:05.489Z,15.48
2023-09-01T07:52:14.386Z,15.68
2023-09-01T07:54:24.805Z,15.64
2023-09-01T07:56:38.512Z,15.86
2023-09-01T07:58:46.837Z,15.99
2023-09-01T08:00:59.937Z,16.09
2023-09-01T08:03:12.655Z,16.14
2023-09-01T08:05:23.180Z,16.20
2023-09-01T08:07:33.456Z,16.21
2023-09-01T08:09:43.612Z,15.96
2023-09-01T08:11:54.026Z,15.93
2023-09-01T08:14:02.333Z,15.94
2023-09-01T08:16:14.347Z,16.17
2023-09-01T08:18:31.881Z,16.22
2023-09-01T08:20:41.412Z,16.15
2023-09-01T08:22:50.051Z,16.21
2023-09-01T08:24:58.147Z,16.11
2023-09-01T08:27:09.893Z,16.21
2023-09-01T08:29:18.423Z,16.54
2023-09-01T08:31:29.659Z,16.48
2023-09-01T08:33:37.897Z,16.48
2023-09-01T08:35:46.827Z,16.60
2023-09-01T08:37:55.338Z,16.93
2023-09-01T08:40:06.451Z,17.15
2023-09-01T08:42:18.201Z,17.29
2023-09-01T08:44:27.597Z,17.52
2023-09-01T08:46:42.545Z,18.16
2023-09-01T08:48:51.035Z,18.31
2023-09-01T08:51:00.897Z,18.72
2023-09-01T08:53:09.995Z,19.07
2023-09-01T08:55:18.594Z,19.22
2023-09-01T08:57:28.642Z,18.92
2023-09-01T08:59:38.474Z,19.15
2023-09-01T09:01:51.982Z,19.42
2023-09-01T09:04:00.168Z,19.69
2023-09-01T09:06:08.562Z,19.80
2023-09-01T09:08:18.935Z,19.76
2023-09-01T09:10:39.486Z,19.94
2023-09-01T09:12:49.178Z,20.03
2023-09-01T09:14:59.726Z,20.04
2023-09-01T09:17:10.870Z,20.07
2023-09-01T09:19:20.718Z,20.45
2023-09-01T09:21:31.026Z,20.65
2023-09-01T09:23:47.045Z,21.23
2023-09-01T09:25:55.324Z,21.60
2023-09-01T09:28:04.851Z,22.34
2023-09-01T09:30:14.572Z,23.34
2023-09-01T09:32:28.079Z,24.17
2023-09-01T09:34:36.693Z,23.96
2023-09-01T09:36:42.061Z,24.57
2023-09-01T09:38:51.252Z,25.20
2023-09-01T09:41:01.401Z,24.52
2023-09-01T09:43:13.518Z,23.80
2023-09-01T09:45:33.698Z,23.94
2023-09-01T09:47:44.899Z,23.32
2023-09-01T09:49:56.197Z,23.43
2023-09-01T09:52:06.174Z,23.21
2023-09-01T09:54:17.138Z,23.31
2023-09-01T09:56:36.181Z,22.95
2023-09-01T09:58:49.563Z,22.64
2023-09-01T10:01:04.835Z,22.44
2023-09-01T10:03:15.984Z,22.58
2023-09-01T10:05:35.818Z,22.66
2023-09-01T10:07:47.160Z,22.51
2023-09-01T10:09:57.116Z,22.44
2023-09-01T10:12:06.135Z,22.56
2023-09-01T10:14:16.255Z,22.22
2023-09-01T10:16:24.676Z,22.31
2023-09-01T10:18:39.329Z,22.37
2023-09-01T10:20:50.028Z,22.55
2023-09-01T10:22:58.364Z,22.36
2023-09-01T10:25:20.920Z,22.40
2023-09-01T10:27:29.474Z,22.73
2023-09-01T10:29:39.056Z,23.18
2023-09-01T10:31:49.198Z,23.49
2023-09-01T10:34:15.859Z,23.61
2023-09-01T10:36:25.186Z,23.35
2023-09-01T10:38:42.349Z,23.52
2023-09-01T10:40:52.549Z,23.12
2023-09-01T10:43:01.272Z,23.32
2023-09-01T10:45:13.571Z,23.54
2023-09-01T10:47:57.959Z,23.31
2023-09-01T10:50:13.628Z,23.36
2023-09-01T10:52:21.648Z,23.60
2023-09-01T10:54:44.773Z,23.18
2023-09-01T10:57:03.493Z,23.06
2023-09-01T10:59:11.699Z,22.79
2023-09-01T11:01:29.895Z,22.58
2023-09-01T11:03:39.761Z,22.75
2023-09-01T11:05:59.436Z,22.85
2023-09-01T11:08:14.358Z,22.95
2023-09-01T11:10:26.814Z,23.03
2023-09-01T11:12:36.087Z,23.34
2023-09-01T11:14:55.711Z,24.02
2023-09-01T11:17:05.308Z,24.69
2023-09-01T11:19:14.178Z,24.72
2023-09-01T11:21:25.747Z,24.68
2023-09-01T11:23:34.569Z,24.59
2023-09-01T11:25:45.282Z,24.54
2023-09-01T11:27:55.092Z,24.03
2023-09-01T11:30:05.653Z,24.03
2023-09-01T11:32:13.995Z,24.00
2023-09-01T11:34:22.860Z,24.27
2023-09-01T11:36:34.113Z,24.50
2023-09-01T11:38:45.523Z,25.07
2023-09-01T11:40:56.495Z,25.08
2023-09-01T11:43:07.458Z,25.06
2023-09-01T11:45:16.086Z,24.72
2023-09-01T11:47:27.114Z,24.58
2023-09-01T11:49:37.551Z,24.45
2023-09-01T11:51:48.376Z,24.43
2023-09-01T11:53:57.694Z,24.39
2023-09-01T11:56:22.410Z,23.98
2023-09-01T11:58:49.153Z,23.71
2023-09-01T12:01:01.449Z,23.62
2023-09-01T12:03:12.141Z,23.08
2023-09-01T12:05:30.298Z,23.12
2023-09-01T12:07:41.164Z,23.39
2023-09-01T12:09:49.256Z,23.84
2023-09-01T12:12:01.839Z,24.23
2023-09-01T12:14:23.971Z,24.24
2023-09-01T12:16:34.429Z,23.92
2023-09-01T12:18:45.744Z,23.42
2023-09-01T12:20:52.890Z,23.37
2023-09-01T12:23:04.191Z,23.20
2023-09-01T12:25:13.989Z,23.02
2023-09-01T12:27:22.303Z,22.76
2023-09-01T12:29:30.417Z,22.79
2023-09-01T12:31:38.943Z,22.97
2023-09-01T12:33:47.218Z,23.05
2023-09-01T12:35:54.528Z,23.20
2023-09-01T12:38:05.545Z,23.39
2023-09-01T12:40:15.176Z,23.58
2023-09-01T12:42:23.279Z,23.59
2023-09-01T12:44:31.939Z,23.98
2023-09-01T12:46:42.693Z,24.36
2023-09-01T12:48:50.817Z,24.24
2023-09-01T12:50:58.898Z,24.19
2023-09-01T12:53:09.668Z,24.23
2023-09-01T12:55:17.630Z,24.18
2023-09-01T12:57:25.841Z,23.79
2023-09-01T12:59:33.924Z,23.69
2023-09-01T13:01:42.528Z,23.30
2023-09-01T13:03:50.597Z,23.13
2023-09-01T13:05:59.563Z,23.31
2023-09-01T13:08:10.626Z,23.41
2023-09-01T13:10:16.410Z,23.79
2023-09-01T13:12:24.545Z,24.14
2023-09-01T13:14:32.534Z,24.45
2023-09-01T13:16:40.581Z,24.59
2023-09-01T13:18:48.570Z,24.79
2023-09-01T13:20:56.720Z,24.64
2023-09-01T13:23:04.779Z,24.94
2023-09-01T13:25:16.008Z,24.99
2023-09-01T13:27:23.972Z,25.17
2023-09-01T13:29:32.128Z,25.37
2023-09-01T13:31:40.557Z,25.48
2023-09-01T13:33:48.674Z,25.29
2023-09-01T13:35:57.688Z,25.38
2023-09-01T13:38:06.428Z,25.34
2023-09-01T13:40:17.565Z,25.49
2023-09-01T13:42:24.030Z,25.81
2023-09-01T13:44:32.344Z,25.96
2023-09-01T13:46:40.569Z,26.24
2023-09-01T13:48:46.392Z,26.24
2023-09-01T13:50:57.584Z,25.84
2023-09-01T13:53:05.672Z,25.52
2023-09-01T13:55:16.947Z,25.21
2023-09-01T13:57:29.579Z,25.01
2023-09-01T13:59:38.016Z,24.53
2023-09-01T14:01:46.107Z,24.52
2023-09-01T14:03:54.578Z,24.55
2023-09-01T14:06:03.689Z,24.80
2023-09-01T14:08:11.893Z,25.12
2023-09-01T14:10:23.797Z,25.38
2023-09-01T14:12:32.081Z,25.33
2023-09-01T14:14:40.225Z,25.40
2023-09-01T14:16:48.375Z,25.05
2023-09-01T14:19:02.691Z,24.65
2023-09-01T14:21:13.361Z,24.22
2023-09-01T14:23:21.858Z,23.84
2023-09-01T14:25:32.612Z,23.55
2023-09-01T14:27:40.645Z,23.54
2023-09-01T14:29:48.528Z,23.42
2023-09-01T14:31:56.614Z,23.40
2023-09-01T14:34:04.689Z,23.38
2023-09-01T14:36:14.903Z,23.54
2023-09-01T14:38:23.689Z,23.76
2023-09-01T14:40:34.517Z,23.73
2023-09-01T14:42:42.664Z,23.72
2023-09-01T14:44:50.840Z,23.82
2023-09-01T14:46:58.830Z,24.02
2023-09-01T14:49:08.400Z,24.28
2023-09-01T14:51:18.606Z,24.39
2023-09-01T14:53:26.728Z,24.43
2023-09-01T14:55:37.441Z,24.33
2023-09-01T14:57:45.701Z,23.96
2023-09-01T14:59:54.058Z,23.89
2023-09-01T15:02:05.723Z,23.90
2023-09-01T15:04:13.966Z,23.64
2023-09-01T15:06:21.968Z,23.68
2023-09-01T15:08:29.987Z,24.01
2023-09-01T15:10:40.624Z,24.32
2023-09-01T15:12:48.803Z,24.32
2023-09-01T15:14:57.114Z,24.17
2023-09-01T15:17:05.601Z,24.06
2023-09-01T15:19:14.396Z,23.87
2023-09-01T15:21:22.415Z,23.66
2023-09-01T15:23:30.858Z,23.45
2023-09-01T15:25:39.899Z,23.49
2023-09-01T15:27:48.096Z,23.26
2023-09-01T15:29:56.172Z,23.01
2023-09-01T15:32:04.623Z,22.78
2023-09-01T15:34:14.069Z,22.77
2023-09-01T15:36:23.505Z,22.80
2023-09-01T15:38:34.609Z,22.78
2023-09-01T15:40:45.578Z,22.80
2023-09-01T15:42:58.077Z,22.77
2023-09-01T15:45:07.858Z,22.74
2023-09-01T15:47:16.055Z,22.99
2023-09-01T15:49:25.119Z,23.11
2023-09-01T15:51:34.225Z,23.21
2023-09-01T15:53:43.887Z,23.28
2023-09-01T15:55:56.793Z,23.37
2023-09-01T15:58:06.072Z,23.26
2023-09-01T16:00:15.563Z,23.26
2023-09-01T16:02:24.252Z,23.30
2023-09-01T16:04:32.915Z,23.20
2023-09-01T16:06:41.354Z,23.11
2023-09-01T16:08:49.613Z,22.91
2023-09-01T16:11:00.306Z,22.56
2023-09-01T16:13:08.559Z,22.40
2023-09-01T16:15:16.525Z,22.50
2023-09-01T16:17:25.158Z,22.43
2023-09-01T16:19:33.492Z,22.52
2023-09-01T16:21:43.789Z,22.48
2023-09-01T16:23:52.876Z,22.45
2023-09-01T16:26:04.538Z,22.30
2023-09-01T16:28:13.281Z,22.22
2023-09-01T16:30:21.485Z,22.24
2023-09-01T16:32:27.831Z,22.22
2023-09-01T16:34:35.881Z,22.26
2023-09-01T16:36:44.230Z,22.29
2023-09-01T16:38:54.059Z,22.46
2023-09-01T16:41:05.589Z,22.31
2023-09-01T16:43:10.928Z,22.23
2023-09-01T16:45:19.374Z,22.28
2023-09-01T16:47:27.449Z,22.14
2023-09-01T16:49:36.896Z,22.11
2023-09-01T16:51:45.033Z,22.11
2023-09-01T16:53:53.322Z,22.05
2023-09-01T16:56:06.760Z,22.02
2023-09-01T16:58:15.261Z,21.98
2023-09-01T17:00:23.520Z,21.89
2023-09-01T17:02:32.728Z,21.84
2023-09-01T17:04:41.079Z,21.80
2023-09-01T17:06:50.136Z,21.68
2023-09-01T17:08:59.501Z,21.76
2023-09-01T17:11:10.308Z,21.73
2023-09-01T17:13:18.994Z,21.61
2023-09-01T17:15:27.574Z,21.51
2023-09-01T17:17:33.601Z,21.39
2023-09-01T17:19:41.966Z,21.25
2023-09-01T17:21:50.106Z,21.13
2023-09-01T17:23:58.129Z,21.01
2023-09-01T17:26:06.248Z,20.96
2023-09-01T17:28:14.278Z,20.82
2023-09-01T17:30:22.580Z,20.65
2023-09-01T17:32:37.656Z,20.53
2023-09-01T17:34:46.125Z,20.39
2023-09-01T17:36:54.210Z,20.26
2023-09-01T17:39:02.156Z,20.13
2023-09-01T17:41:10.552Z,20.01
2023-09-01T17:43:23.004Z,19.85
2023-09-01T17:45:28.411Z,19.70
2023-09-01T17:47:36.753Z,19.56
2023-09-01T17:49:45.387Z,19.46
2023-09-01T17:51:53.439Z,19.29
2023-09-01T17:54:01.523Z,19.33
2023-09-01T17:56:09.471Z,19.20
2023-09-01T17:58:20.608Z,19.03
2023-09-01T18:00:26.085Z,18.95
2023-09-01T18:02:42.273Z,18.87
2023-09-01T18:04:50.922Z,18.79
2023-09-01T18:07:02.640Z,18.76
2023-09-01T18:09:11.504Z,18.65
2023-09-01T18:11:21.802Z,18.63
2023-09-01T18:13:33.929Z,18.61
2023-09-01T18:15:43.413Z,18.61
2023-09-01T18:17:53.038Z,18.59
2023-09-01T18:20:02.690Z,18.53
2023-09-01T18:22:11.211Z,18.42
2023-09-01T18:24:26.161Z,18.35
2023-09-01T18:26:36.630Z,18.28
2023-09-01T18:28:49.296Z,18.27
2023-09-01T18:30:57.476Z,18.23
2023-09-01T18:33:11.521Z,18.22
2023-09-01T18:35:23.773Z,18.25
2023-09-01T18:37:32.393Z,18.22
2023-09-01T18:39:40.839Z,18.28
2023-09-01T18:41:50.270Z,18.18
2023-09-01T18:44:01.355Z,18.06
2023-09-01T18:46:09.561Z,18.25
2023-09-01T18:48:27.563Z,18.14
2023-09-01T18:50:33.082Z,18.07
2023-09-01T18:52:41.102Z,18.07
2023-09-01T18:54:49.602Z,17.99
2023-09-01T18:56:59.281Z,18.07
2023-09-01T18:59:10.765Z,18.03
2023-09-01T19:01:21.638Z,18.11
2023-09-01T19:03:30.408Z,18.21
2023-09-01T19:05:41.722Z,18.36
2023-09-01T19:07:47.438Z,18.35
2023-09-01T19:09:56.051Z,18.43
2023-09-01T19:12:04.483Z,18.33
2023-09-01T19:14:21.097Z,18.32
2023-09-01T19:16:30.086Z,18.41
2023-09-01T19:18:41.967Z,18.50
2023-09-01T19:20:51.635Z,18.36
2023-09-01T19:23:05.518Z,18.29
2023-09-01T19:25:15.059Z,18.28
2023-09-01T19:27:24.612Z,18.24
2023-09-01T19:29:35.730Z,18.20
2023-09-01T19:31:53.183Z,18.30
2023-09-01T19:34:07.364Z,18.27
2023-09-01T19:36:21.158Z,18.27
2023-09-01T19:38:33.650Z,18.34
2023-09-01T19:40:53.683Z,18.20
2023-09-01T19:43:27.834Z,18.09
2023-09-01T19:52:43.845Z,17.98
2023-09-01T19:54:54.208Z,17.95
2023-09-01T19:57:03.610Z,17.86
2023-09-01T19:59:11.380Z,17.71
2023-09-01T20:01:41.637Z,17.69
2023-09-01T20:04:01.230Z,17.78
2023-09-01T20:06:27.380Z,17.76
2023-09-01T20:08:45.002Z,17.97
2023-09-01T20:10:53.819Z,17.99
2023-09-01T20:13:29.068Z,18.06
2023-09-01T20:15:50.806Z,18.14
2023-09-01T20:21:09.102Z,18.06
2023-09-01T20:23:35.913Z,17.86
2023-09-01T20:25:49.339Z,17.81
2023-09-01T20:28:15.313Z,17.94
2023-09-01T20:33:05.963Z,18.07
2023-09-01T20:35:46.719Z,17.93
2023-09-01T20:43:15.533Z,17.86
2023-09-01T20:46:01.029Z,17.80
2023-09-01T20:48:36.847Z,17.82
2023-09-01T20:50:51.659Z,17.50
2023-09-01T20:53:09.381Z,17.39
2023-09-01T20:55:26.884Z,17.41
2023-09-01T20:57:55.257Z,17.27
2023-09-01T21:00:18.008Z,17.40
2023-09-01T21:02:54.655Z,17.34
2023-09-01T21:05:12.771Z,17.35
2023-09-01T21:07:25.956Z,17.16
2023-09-01T21:09:46.726Z,17.12
2023-09-01T21:11:56.917Z,17.05
2023-09-01T21:14:06.209Z,17.15
2023-09-01T21:16:22.521Z,17.20
2023-09-01T21:18:38.205Z,17.17
2023-09-01T21:21:12.855Z,17.27
2023-09-01T21:23:26.342Z,17.30
2023-09-01T21:25:39.876Z,17.34
2023-09-01T21:27:51.665Z,17.27
2023-09-01T21:30:20.995Z,17.16
2023-09-01T21:32:33.075Z,17.02
2023-09-01T21:34:43.039Z,16.99
2023-09-01T21:36:55.135Z,16.87
2023-09-01T21:39:17.556Z,16.94
2023-09-01T21:41:27.857Z,17.02
2023-09-01T21:43:36.575Z,16.98
2023-09-01T21:45:47.325Z,16.95
2023-09-01T21:48:04.037Z,17.05
2023-09-01T21:50:28.617Z,16.91
2023-09-01T21:56:37.660Z,16.82
2023-09-01T21:59:39.965Z,16.62
2023-09-01T22:02:08.582Z,16.58
2023-09-01T22:04:29.287Z,16.51
2023-09-01T22:06:40.356Z,16.47
2023-09-01T22:09:05.333Z,16.50
2023-09-01T22:11:25.682Z,16.53
2023-09-01T22:13:56.786Z,16.49
2023-09-01T22:16:21.223Z,16.39
2023-09-01T22:18:42.184Z,16.50
2023-09-01T22:20:53.915Z,16.52
2023-09-01T22:23:02.243Z,16.53
2023-09-01T22:25:13.667Z,16.24
2023-09-01T22:27:22.334Z,16.11
2023-09-01T22:29:32.377Z,15.98
2023-09-01T22:31:43.206Z,15.83
2023-09-01T22:33:52.965Z,15.78
2023-09-01T22:36:01.892Z,15.76
2023-09-01T22:38:27.360Z,15.79
2023-09-01T22:40:40.600Z,16.02
2023-09-01T22:42:51.587Z,15.98
2023-09-01T22:45:17.275Z,16.21
2023-09-01T22:47:44.738Z,16.07
2023-09-01T22:49:50.719Z,15.88
2023-09-01T22:51:59.672Z,15.82
2023-09-01T22:54:11.550Z,15.83
2023-09-01T22:56:22.294Z,15.84
2023-09-01T22:58:31.177Z,15.76
2023-09-01T23:00:41.371Z,15.79
2023-09-01T23:02:50.826Z,15.68
2023-09-01T23:05:17.946Z,15.67
2023-09-01T23:10:03.291Z,15.59
2023-09-01T23:12:17.731Z,15.53
2023-09-01T23:14:46.571Z,15.59
2023-09-01T23:17:02.955Z,15.76
2023-09-01T23:19:17.664Z,15.79
2023-09-01T23:21:34.566Z,15.62
2023-09-01T23:23:55.719Z,15.37
2023-09-01T23:26:10.214Z,15.24
2023-09-01T23:29:16.290Z,15.27
2023-09-01T23:37:42.191Z,15.23
2023-09-01T23:40:00.811Z,15.23
2023-09-01T23:42:28.706Z,15.18
2023-09-01T23:45:14.536Z,15.36
2023-09-01T23:47:28.756Z,15.25
2023-09-01T23:49:35.064Z,15.30
2023-09-01T23:51:46.841Z,15.25
2023-09-01T23:53:55.702Z,15.20
2023-09-01T23:56:09.270Z,15.17
2023-09-01T23:58:29.498Z,15.13
